createdAt,value
2022-10-29T00:01:54.930Z,3.80
2022-10-29T00:06:58.573Z,4.07
2022-10-29T00:12:00.839Z,3.90
2022-10-29T00:17:03.155Z,3.95
2022-10-29T00:22:06.735Z,3.67
2022-10-29T00:27:08.981Z,3.60
2022-10-29T00:32:12.009Z,3.55
2022-10-29T00:37:15.774Z,3.78
2022-10-29T00:42:18.186Z,3.50
2022-10-29T00:47:23.366Z,5.47
2022-10-29T00:52:30.169Z,4.35
2022-10-29T00:57:37.090Z,4.53
2022-10-29T01:02:39.484Z,4.68
2022-10-29T01:07:43.383Z,4.93
2022-10-29T01:13:02.137Z,4.93
2022-10-29T01:18:13.893Z,6.47
2022-10-29T01:23:39.815Z,4.53
2022-10-29T01:28:56.481Z,5.53
2022-10-29T01:34:07.157Z,4.22
2022-10-29T01:39:17.838Z,5.07
2022-10-29T01:44:29.812Z,4.00
2022-10-29T01:49:37.842Z,4.93
2022-10-29T01:54:42.471Z,5.72
2022-10-29T01:59:55.539Z,4.95
2022-10-29T02:05:12.390Z,4.35
2022-10-29T02:10:25.345Z,4.97
2022-10-29T02:15:33.913Z,4.57
2022-10-29T02:20:42.313Z,4.18
2022-10-29T02:25:44.755Z,5.38
2022-10-29T02:30:46.896Z,3.95
2022-10-29T02:35:50.479Z,4.88
2022-10-29T02:40:52.664Z,4.47
2022-10-29T02:46:10.139Z,6.78
2022-10-29T02:51:13.846Z,6.07
2022-10-29T02:56:15.999Z,5.13
2022-10-29T03:01:18.232Z,7.28
2022-10-29T03:06:21.902Z,6.00
2022-10-29T03:11:24.425Z,5.13
2022-10-29T03:16:26.614Z,5.07
2022-10-29T03:21:30.341Z,4.65
2022-10-29T03:26:32.533Z,4.53
2022-10-29T03:31:34.755Z,5.88
2022-10-29T03:36:38.360Z,3.88
2022-10-29T03:41:40.545Z,3.60
2022-10-29T03:46:42.674Z,3.97
2022-10-29T03:51:46.223Z,4.75
2022-10-29T03:56:48.609Z,3.92
2022-10-29T04:01:50.987Z,3.25
2022-10-29T04:06:54.706Z,4.97
2022-10-29T04:11:56.919Z,5.35
2022-10-29T04:16:59.064Z,6.00
2022-10-29T04:28:17.723Z,4.63
2022-10-29T04:32:47.118Z,3.55
2022-10-29T04:37:50.733Z,4.57
2022-10-29T04:42:53.032Z,3.65
2022-10-29T04:47:59.531Z,3.08
2022-10-29T04:53:05.354Z,3.70
2022-10-29T04:58:10.978Z,3.40
2022-10-29T05:03:13.678Z,3.38
2022-10-29T05:08:17.312Z,2.95
2022-10-29T05:13:19.595Z,3.33
2022-10-29T05:18:21.880Z,4.28
2022-10-29T05:23:25.430Z,3.42
2022-10-29T05:28:27.735Z,2.90
2022-10-29T05:33:30.016Z,3.08
2022-10-29T05:38:33.633Z,3.70
2022-10-29T05:43:35.950Z,3.50
2022-10-29T05:48:38.126Z,3.10
2022-10-29T05:53:41.803Z,3.10
2022-10-29T05:58:44.060Z,2.65
2022-10-29T06:03:46.667Z,3.25
2022-10-29T06:08:50.328Z,3.70
2022-10-29T06:13:55.723Z,5.07
2022-10-29T06:18:57.905Z,3.70
2022-10-29T06:24:01.500Z,7.05
2022-10-29T06:29:03.795Z,6.57
2022-10-29T06:34:05.965Z,4.10
2022-10-29T06:39:09.591Z,3.83
2022-10-29T06:44:11.824Z,4.25
2022-10-29T06:49:14.036Z,5.05
2022-10-29T06:54:17.752Z,4.72
2022-10-29T06:59:19.971Z,5.05
2022-10-29T07:04:22.352Z,5.32
2022-10-29T07:09:25.963Z,5.47
2022-10-29T07:14:28.155Z,5.25
2022-10-29T07:19:30.511Z,6.45
2022-10-29T07:24:34.132Z,6.13
2022-10-29T07:29:36.315Z,5.70
2022-10-29T07:34:38.458Z,6.65
2022-10-29T07:39:42.081Z,5.80
2022-10-29T07:44:44.414Z,5.57
2022-10-29T07:49:46.724Z,5.40
2022-10-29T07:54:50.463Z,6.07
2022-10-29T07:59:52.703Z,5.65
2022-10-29T08:04:55.043Z,5.82
2022-10-29T08:09:58.687Z,5.72
2022-10-29T08:15:01.572Z,5.57
2022-10-29T08:20:05.967Z,6.53
2022-10-29T08:25:11.773Z,6.88
2022-10-29T08:30:14.904Z,7.20
2022-10-29T08:35:17.514Z,7.20
2022-10-29T08:40:31.099Z,7.75
2022-10-29T08:45:40.375Z,7.72
2022-10-29T08:50:48.012Z,6.68
2022-10-29T08:55:52.205Z,7.72
2022-10-29T09:00:58.056Z,7.25
2022-10-29T09:06:09.806Z,7.40
2022-10-29T09:11:27.982Z,8.35
2022-10-29T09:22:00.303Z,8.80
2022-10-29T09:27:14.425Z,9.52
2022-10-29T09:32:23.112Z,9.63
2022-10-29T09:37:33.996Z,9.60
2022-10-29T09:42:41.789Z,10.55
2022-10-29T09:47:55.098Z,9.40
2022-10-29T09:52:58.224Z,12.30
2022-10-29T09:58:02.544Z,10.55
2022-10-29T10:03:12.891Z,10.02
2022-10-29T10:08:16.765Z,10.85
2022-10-29T10:13:24.637Z,10.13
2022-10-29T10:18:41.549Z,11.10
2022-10-29T10:23:46.005Z,14.82
2022-10-29T10:29:10.161Z,12.43
2022-10-29T10:34:18.985Z,17.92
2022-10-29T10:39:27.676Z,15.40
2022-10-29T10:44:32.260Z,13.43
2022-10-29T10:49:36.129Z,13.73
2022-10-29T10:54:41.730Z,14.05
2022-10-29T10:59:52.107Z,12.88
2022-10-29T11:05:03.507Z,14.68
2022-10-29T11:10:12.567Z,13.90
2022-10-29T11:15:22.019Z,14.15
2022-10-29T11:20:27.621Z,13.93
2022-10-29T11:25:39.936Z,15.18
2022-10-29T11:30:50.430Z,15.73
2022-10-29T11:36:01.579Z,15.32
2022-10-29T11:41:13.563Z,16.48
2022-10-29T11:46:25.403Z,14.25
2022-10-29T11:51:35.549Z,16.95
2022-10-29T11:56:51.609Z,17.17
2022-10-29T12:02:06.163Z,15.77
2022-10-29T12:07:33.236Z,15.32
2022-10-29T12:17:49.745Z,15.00
2022-10-29T12:23:02.738Z,14.27
2022-10-29T12:28:16.143Z,14.98
2022-10-29T12:33:24.915Z,15.50
2022-10-29T12:38:38.281Z,16.80
2022-10-29T12:43:42.532Z,14.85
2022-10-29T12:48:56.680Z,14.95
2022-10-29T12:54:16.537Z,15.30
2022-10-29T12:59:30.144Z,14.88
2022-10-29T13:04:34.431Z,14.77
2022-10-29T13:09:37.335Z,14.80
2022-10-29T13:14:43.956Z,14.27
2022-10-29T13:19:52.550Z,16.42
2022-10-29T13:25:40.904Z,15.45
2022-10-29T13:30:45.937Z,15.15
2022-10-29T13:35:55.628Z,15.02
2022-10-29T13:41:16.275Z,15.15
2022-10-29T13:46:46.339Z,14.57
2022-10-29T13:52:00.428Z,13.35
2022-10-29T13:57:08.907Z,12.85
2022-10-29T14:02:29.975Z,11.77
2022-10-29T14:07:41.821Z,12.07
2022-10-29T14:12:46.271Z,12.15
2022-10-29T14:17:48.510Z,12.00
2022-10-29T14:22:52.456Z,12.88
2022-10-29T14:28:18.067Z,12.93
2022-10-29T14:33:24.392Z,12.20
2022-10-29T14:38:40.754Z,11.73
2022-10-29T14:43:44.528Z,13.80
2022-10-29T14:48:53.886Z,14.13
2022-10-29T14:54:01.831Z,13.68
2022-10-29T14:59:19.037Z,11.98
2022-10-29T15:04:25.124Z,10.60
2022-10-29T15:09:29.037Z,12.75
2022-10-29T15:14:37.870Z,12.32
2022-10-29T15:19:45.433Z,11.35
2022-10-29T15:24:50.985Z,10.98
2022-10-29T15:29:54.604Z,11.18
2022-10-29T15:34:58.430Z,11.05
2022-10-29T15:40:10.075Z,10.55
2022-10-29T15:45:24.539Z,11.02
2022-10-29T15:50:32.560Z,11.68
2022-10-29T15:55:37.147Z,11.55
2022-10-29T16:00:39.592Z,10.60
2022-10-29T16:05:43.547Z,13.18
2022-10-29T16:10:48.513Z,13.10
2022-10-29T16:15:50.820Z,12.63
2022-10-29T16:20:57.746Z,13.40
2022-10-29T16:26:01.542Z,14.75
2022-10-29T16:31:03.920Z,14.80
2022-10-29T16:36:07.678Z,14.77
2022-10-29T16:41:13.775Z,13.85
2022-10-29T16:46:16.289Z,15.40
2022-10-29T16:51:18.601Z,13.65
2022-10-29T16:56:22.287Z,13.13
2022-10-29T17:01:24.693Z,13.07
2022-10-29T17:06:27.053Z,13.32
2022-10-29T17:11:30.694Z,13.55
2022-10-29T17:16:33.063Z,14.20
2022-10-29T17:21:36.774Z,14.63
2022-10-29T17:26:41.957Z,15.77
2022-10-29T17:31:44.477Z,16.98
2022-10-29T17:36:46.663Z,15.82
2022-10-29T17:41:51.132Z,13.27
2022-10-29T17:46:53.653Z,13.43
2022-10-29T17:51:55.947Z,13.15
2022-10-29T17:56:59.593Z,12.88
2022-10-29T18:02:02.028Z,14.80
2022-10-29T18:07:04.605Z,12.70
2022-10-29T18:12:08.694Z,12.90
2022-10-29T18:17:11.085Z,15.23
2022-10-29T18:22:13.494Z,15.43
2022-10-29T18:27:17.162Z,16.20
2022-10-29T18:32:19.797Z,14.68
2022-10-29T18:37:22.217Z,14.57
2022-10-29T18:42:26.206Z,14.05
2022-10-29T18:47:28.477Z,13.18
2022-10-29T18:52:30.846Z,14.02
2022-10-29T18:57:34.694Z,13.00
2022-10-29T19:02:37.124Z,14.27
2022-10-29T19:07:39.585Z,12.57
2022-10-29T19:12:44.037Z,13.88
2022-10-29T19:17:46.671Z,12.23
2022-10-29T19:22:49.473Z,14.00
2022-10-29T19:27:53.094Z,13.75
2022-10-29T19:33:00.037Z,12.27
2022-10-29T19:38:05.987Z,13.02
2022-10-29T19:43:09.841Z,12.57
2022-10-29T19:48:12.191Z,12.48
2022-10-29T19:53:15.217Z,12.50
2022-10-29T19:58:19.548Z,13.70
2022-10-29T20:03:22.225Z,13.65
2022-10-29T20:08:24.693Z,12.65
2022-10-29T20:13:28.814Z,13.63
2022-10-29T20:18:30.993Z,13.05
2022-10-29T20:23:33.396Z,14.07
2022-10-29T20:28:37.749Z,12.98
2022-10-29T20:33:41.307Z,12.98
2022-10-29T20:38:43.577Z,13.32
2022-10-29T20:43:52.276Z,12.75
2022-10-29T20:48:54.849Z,13.15
2022-10-29T20:53:57.158Z,13.38
2022-10-29T20:59:02.462Z,11.70
2022-10-29T21:04:04.940Z,12.13
2022-10-29T21:09:07.359Z,11.68
2022-10-29T21:14:11.346Z,11.18
2022-10-29T21:19:13.562Z,11.18
2022-10-29T21:24:15.769Z,11.18
2022-10-29T21:29:19.461Z,11.23
2022-10-29T21:34:22.503Z,11.15
2022-10-29T21:39:24.983Z,10.75
2022-10-29T21:44:28.796Z,8.18
2022-10-29T21:49:31.078Z,7.78
2022-10-29T21:54:33.314Z,12.73
2022-10-29T21:59:36.989Z,11.20
2022-10-29T22:04:39.199Z,11.00
2022-10-29T22:09:41.629Z,8.93
2022-10-29T22:14:45.535Z,11.93
2022-10-29T22:19:47.675Z,13.45
2022-10-29T22:24:50.115Z,10.75
2022-10-29T22:29:54.600Z,10.18
2022-10-29T22:34:56.835Z,10.27
2022-10-29T22:39:59.320Z,11.38
2022-10-29T22:45:03.079Z,10.88
2022-10-29T22:50:05.770Z,11.35
2022-10-29T22:55:08.743Z,10.27
2022-10-29T23:00:14.724Z,9.95
2022-10-29T23:05:17.078Z,9.85
2022-10-29T23:10:19.641Z,10.27
2022-10-29T23:15:23.215Z,10.45
2022-10-29T23:20:25.458Z,9.82
2022-10-29T23:25:27.637Z,9.60
2022-10-29T23:30:31.213Z,9.43
2022-10-29T23:35:34.929Z,9.60
2022-10-29T23:40:37.073Z,10.15
2022-10-29T23:45:42.425Z,10.50
2022-10-29T23:50:45.229Z,9.98
2022-10-29T23:55:47.410Z,9.68
